Time;durP1;ratioP1;P1;durP2;ratioP2;P2;SDS_P1;SDS_P2;PMS_P1;PMS_P2;Temp;Humidity;BMP_temperature;BMP_pressure;BME280_temperature;BME280_humidity;BME280_pressure;Samples;Min_cycle;Max_cycle;Signal;HPM_P1;HPM_P2
2024/02/23 00:00:24;;;;;;;0.43;0.40;;;10.50;99.90;;;;;;4954124;28;20658;-73
2024/02/23 00:02:53;;;;;;;0.60;0.40;;;10.50;99.90;;;;;;4968748;28;20301;-73
2024/02/23 00:05:20;;;;;;;0.50;0.50;;;10.50;99.90;;;;;;4950037;28;20207;-73
2024/02/23 00:07:48;;;;;;;0.40;0.40;;;10.50;99.90;;;;;;4949872;28;20212;-73
2024/02/23 00:10:16;;;;;;;0.80;0.43;;;10.50;99.90;;;;;;4949977;28;20241;-74
2024/02/23 00:12:44;;;;;;;0.50;0.50;;;10.50;99.90;;;;;;4950080;28;20214;-73
2024/02/23 00:15:11;;;;;;;0.63;0.50;;;10.50;99.90;;;;;;4962844;28;20210;-73
2024/02/23 00:17:39;;;;;;;0.50;0.50;;;10.60;99.90;;;;;;4950154;28;20334;-73
2024/02/23 00:20:07;;;;;;;0.40;0.40;;;10.60;99.90;;;;;;4949891;28;20215;-73
2024/02/23 00:22:34;;;;;;;1.17;0.70;;;10.60;99.90;;;;;;4949420;28;20212;-73
2024/02/23 00:25:03;;;;;;;0.67;0.60;;;10.60;99.90;;;;;;4949163;28;20243;-73
2024/02/23 00:27:29;;;;;;;0.57;0.57;;;10.60;99.90;;;;;;4964069;28;20223;-73
2024/02/23 00:29:56;;;;;;;1.57;0.50;;;10.60;99.90;;;;;;4969038;28;20241;-73
2024/02/23 00:32:23;;;;;;;0.47;0.47;;;10.50;99.90;;;;;;4966781;28;20223;-73
2024/02/23 00:34:50;;;;;;;0.50;0.50;;;10.60;99.90;;;;;;4960433;28;20210;-72
2024/02/23 00:37:17;;;;;;;0.93;0.63;;;10.60;99.90;;;;;;4968226;28;20297;-72
2024/02/23 00:39:44;;;;;;;0.80;0.80;;;10.60;99.90;;;;;;4968514;28;20310;-72
2024/02/23 00:42:12;;;;;;;0.60;0.60;;;10.70;99.90;;;;;;4968351;28;20294;-72
2024/02/23 00:44:39;;;;;;;1.43;0.60;;;10.60;99.90;;;;;;4968365;28;20297;-73
2024/02/23 00:47:06;;;;;;;0.53;0.50;;;10.70;99.90;;;;;;4968227;28;20294;-72
2024/02/23 00:49:33;;;;;;;0.67;0.67;;;10.70;99.90;;;;;;4968477;28;20257;-74
2024/02/23 00:52:00;;;;;;;0.60;0.60;;;10.60;99.90;;;;;;4968411;28;20211;-73
2024/02/23 00:54:27;;;;;;;0.60;0.50;;;10.70;99.90;;;;;;4962753;28;20202;-73
2024/02/23 00:56:54;;;;;;;0.97;0.70;;;10.60;99.90;;;;;;4967514;28;20765;-73
2024/02/23 00:59:22;;;;;;;0.37;0.37;;;10.70;99.90;;;;;;4967695;28;20289;-73
2024/02/23 01:01:49;;;;;;;0.83;0.77;;;10.70;99.90;;;;;;4968240;28;20277;-73
2024/02/23 01:04:16;;;;;;;0.70;0.70;;;10.80;99.90;;;;;;4968246;28;20206;-73
2024/02/23 01:06:42;;;;;;;0.70;0.70;;;10.90;99.90;;;;;;4964543;28;20207;-73
2024/02/23 01:09:09;;;;;;;0.80;0.80;;;10.90;99.90;;;;;;4949643;28;20290;-73
2024/02/23 01:11:36;;;;;;;0.50;0.50;;;11.00;99.90;;;;;;4968380;28;20249;-73
2024/02/23 01:14:03;;;;;;;0.80;0.63;;;11.00;99.90;;;;;;4968047;28;20390;-73
2024/02/23 01:16:32;;;;;;;1.07;0.93;;;11.00;99.90;;;;;;4968199;28;20298;-73
2024/02/23 01:18:59;;;;;;;0.73;0.73;;;11.00;99.90;;;;;;4971729;28;20309;-73
2024/02/23 01:21:26;;;;;;;0.43;0.43;;;11.10;99.90;;;;;;4974694;28;21044;-73
2024/02/23 01:23:53;;;;;;;1.60;1.03;;;11.10;99.90;;;;;;4991004;28;21188;-73
2024/02/23 01:26:19;;;;;;;0.70;0.70;;;11.10;99.90;;;;;;4986349;28;20316;-72
2024/02/23 01:28:46;;;;;;;0.70;0.70;;;11.30;99.90;;;;;;4972170;28;20770;-72
2024/02/23 01:31:13;;;;;;;0.70;0.70;;;11.40;99.90;;;;;;4971550;28;20329;-72
2024/02/23 01:33:41;;;;;;;0.50;0.50;;;11.40;99.90;;;;;;4971940;28;20306;-75
2024/02/23 01:36:09;;;;;;;0.80;0.80;;;11.40;99.90;;;;;;4971649;28;20676;-75
2024/02/23 01:38:36;;;;;;;1.73;0.80;;;11.50;99.90;;;;;;4971660;28;20689;-73
2024/02/23 01:41:05;;;;;;;0.70;0.70;;;11.60;99.90;;;;;;4971886;28;20234;-73
2024/02/23 01:43:32;;;;;;;0.47;0.47;;;11.60;99.90;;;;;;4971858;28;20214;-73
2024/02/23 01:45:58;;;;;;;1.00;0.80;;;11.60;99.90;;;;;;4971896;28;20396;-73
2024/02/23 01:48:26;;;;;;;0.73;0.53;;;11.60;99.90;;;;;;4971999;28;20321;-72
2024/02/23 01:50:55;;;;;;;0.43;0.43;;;11.70;99.90;;;;;;4953833;28;20711;-73
2024/02/23 01:53:24;;;;;;;0.40;0.40;;;11.80;99.90;;;;;;4952305;28;20657;-72
2024/02/23 01:55:52;;;;;;;0.60;0.60;;;11.70;99.90;;;;;;4953415;28;20208;-72
2024/02/23 01:58:19;;;;;;;0.40;0.40;;;11.70;99.90;;;;;;4971192;28;20293;-72
2024/02/23 02:00:49;;;;;;;0.67;0.27;;;11.70;99.90;;;;;;4971297;28;20261;-72
2024/02/23 02:03:15;;;;;;;0.50;0.50;;;11.70;99.90;;;;;;4971387;28;20215;-72
2024/02/23 02:05:44;;;;;;;1.70;0.30;;;11.70;99.90;;;;;;4970724;28;20310;-72
2024/02/23 02:08:12;;;;;;;0.50;0.37;;;11.70;99.90;;;;;;4970732;28;20261;-72
2024/02/23 02:10:40;;;;;;;0.40;0.40;;;11.60;99.90;;;;;;4971046;28;20333;-72
2024/02/23 02:13:07;;;;;;;4.50;0.40;;;11.50;99.90;;;;;;4971255;28;20238;-72
2024/02/23 02:15:34;;;;;;;4.63;0.37;;;11.50;99.90;;;;;;4971123;28;20648;-72
2024/02/23 02:18:01;;;;;;;0.20;0.20;;;11.50;99.90;;;;;;4960825;28;20215;-72
2024/02/23 02:20:32;;;;;;;0.87;0.30;;;11.40;99.90;;;;;;4951556;28;20219;-73
2024/02/23 02:22:59;;;;;;;0.20;0.10;;;11.40;99.90;;;;;;4951084;28;20674;-73
2024/02/23 02:25:28;;;;;;;0.30;0.30;;;11.30;99.90;;;;;;4961599;28;20222;-73
2024/02/23 02:27:55;;;;;;;0.57;0.20;;;11.20;99.90;;;;;;4965300;28;20328;-73
2024/02/23 02:30:22;;;;;;;0.17;0.10;;;11.20;99.90;;;;;;4969442;28;20277;-72
2024/02/23 02:32:49;;;;;;;1.50;0.50;;;11.20;99.90;;;;;;4969454;28;20310;-72
2024/02/23 02:35:16;;;;;;;0.20;0.20;;;11.10;99.90;;;;;;4970397;28;20335;-72
2024/02/23 02:37:43;;;;;;;1.67;0.20;;;11.00;99.90;;;;;;4970889;28;20215;-71
2024/02/23 02:40:10;;;;;;;0.83;0.20;;;11.10;99.90;;;;;;4970610;28;20302;-71
2024/02/23 02:42:38;;;;;;;0.17;0.17;;;10.90;99.90;;;;;;4960586;28;20215;-71
2024/02/23 02:45:06;;;;;;;0.60;0.43;;;10.80;99.90;;;;;;4963585;28;20538;-71
2024/02/23 02:47:33;;;;;;;1.17;0.17;;;10.80;99.90;;;;;;4961583;28;20274;-71
2024/02/23 02:50:00;;;;;;;0.30;0.20;;;10.80;99.90;;;;;;4958697;28;20651;-71
2024/02/23 02:52:28;;;;;;;0.77;0.40;;;10.70;99.90;;;;;;4950987;29;20310;-71
2024/02/23 02:54:55;;;;;;;1.23;0.23;;;10.60;99.90;;;;;;4964032;28;20561;-70
2024/02/23 02:57:22;;;;;;;0.70;0.20;;;10.60;99.90;;;;;;4970222;28;20238;-71
2024/02/23 02:59:50;;;;;;;0.40;0.40;;;10.50;99.90;;;;;;4970556;28;20218;-72
2024/02/23 03:02:18;;;;;;;0.63;0.10;;;10.50;99.90;;;;;;4970035;28;20199;-72
2024/02/23 03:04:48;;;;;;;0.20;0.20;;;10.40;99.90;;;;;;4969621;28;20297;-72
2024/02/23 03:07:15;;;;;;;0.10;0.10;;;10.40;99.90;;;;;;4955471;28;20204;-72
2024/02/23 03:09:42;;;;;;;2.43;0.20;;;10.30;99.90;;;;;;4951133;28;20318;-72
2024/02/23 03:12:09;;;;;;;0.83;0.30;;;10.30;99.90;;;;;;4950571;28;20306;-71
2024/02/23 03:14:37;;;;;;;0.30;0.30;;;10.20;99.90;;;;;;4951014;28;20226;-71
2024/02/23 03:17:05;;;;;;;1.03;0.23;;;10.20;99.90;;;;;;4950743;28;20212;-71
2024/02/23 03:19:32;;;;;;;0.87;0.30;;;10.20;99.90;;;;;;4950430;28;20311;-71
2024/02/23 03:21:59;;;;;;;1.27;0.53;;;10.20;99.90;;;;;;4955364;28;20649;-71
2024/02/23 03:24:26;;;;;;;0.53;0.20;;;10.10;99.90;;;;;;4976587;28;20238;-71
2024/02/23 03:26:53;;;;;;;0.67;0.30;;;10.10;99.90;;;;;;4979986;28;20234;-71
2024/02/23 03:29:20;;;;;;;0.67;0.13;;;10.10;99.90;;;;;;4968850;28;20298;-72
2024/02/23 03:31:47;;;;;;;0.50;0.30;;;10.10;99.90;;;;;;4969807;28;20259;-72
2024/02/23 03:34:15;;;;;;;0.40;0.20;;;10.10;99.90;;;;;;4969692;28;20297;-72
2024/02/23 03:36:42;;;;;;;1.40;0.10;;;10.00;99.90;;;;;;4969817;28;20230;-71
2024/02/23 03:39:09;;;;;;;0.40;0.30;;;10.00;99.90;;;;;;4969369;28;20298;-72
2024/02/23 03:41:35;;;;;;;0.30;0.20;;;10.00;99.90;;;;;;4949573;28;20222;-72
2024/02/23 03:44:02;;;;;;;0.30;0.30;;;10.00;99.90;;;;;;4950554;28;20302;-72
2024/02/23 03:46:29;;;;;;;0.20;0.17;;;10.00;99.90;;;;;;4950358;28;20480;-72
2024/02/23 03:48:56;;;;;;;0.63;0.43;;;9.90;99.90;;;;;;4950156;28;20290;-72
2024/02/23 03:51:24;;;;;;;0.93;0.10;;;10.00;99.90;;;;;;4949956;28;20249;-72
2024/02/23 03:53:51;;;;;;;2.30;0.40;;;9.90;99.90;;;;;;4965598;28;20298;-74
2024/02/23 03:56:18;;;;;;;0.40;0.23;;;9.90;99.90;;;;;;4968814;28;20242;-72
2024/02/23 03:58:45;;;;;;;0.80;0.57;;;10.00;99.90;;;;;;4969192;28;20302;-72
2024/02/23 04:01:12;;;;;;;1.13;0.40;;;9.90;99.90;;;;;;4968927;28;20239;-72
2024/02/23 04:03:40;;;;;;;1.13;0.40;;;9.90;99.90;;;;;;4968079;28;20294;-72
2024/02/23 04:06:07;;;;;;;1.83;0.30;;;9.90;99.90;;;;;;4949463;28;20208;-71
2024/02/23 04:08:35;;;;;;;0.20;0.20;;;9.90;99.90;;;;;;4950076;28;20267;-72
2024/02/23 04:11:02;;;;;;;0.83;0.40;;;9.90;99.90;;;;;;4949370;28;20321;-71
2024/02/23 04:13:29;;;;;;;1.50;0.63;;;9.90;99.90;;;;;;4949940;28;20299;-71
2024/02/23 04:15:57;;;;;;;0.20;0.10;;;9.90;99.90;;;;;;4949681;28;20204;-69
2024/02/23 04:18:24;;;;;;;0.20;0.20;;;9.80;99.90;;;;;;4957750;28;20230;-71
2024/02/23 04:20:51;;;;;;;0.10;0.10;;;9.80;99.90;;;;;;4968350;28;20297;-71
2024/02/23 04:23:17;;;;;;;0.30;0.30;;;9.70;99.90;;;;;;4967404;28;20239;-71
2024/02/23 04:25:47;;;;;;;0.27;0.13;;;9.70;99.90;;;;;;4966782;28;20207;-71
2024/02/23 04:28:14;;;;;;;0.87;0.23;;;9.80;99.90;;;;;;4966864;28;20320;-71
2024/02/23 04:30:41;;;;;;;0.53;0.40;;;9.70;99.90;;;;;;4966070;28;20709;-71
2024/02/23 04:33:08;;;;;;;0.40;0.23;;;9.70;99.90;;;;;;4967035;28;20210;-72
2024/02/23 04:35:35;;;;;;;0.20;0.20;;;9.70;99.90;;;;;;4966922;28;20293;-72
2024/02/23 04:38:02;;;;;;;0.93;0.10;;;9.70;99.90;;;;;;4966520;28;20305;-72
2024/02/23 04:40:29;;;;;;;1.50;0.37;;;9.60;99.90;;;;;;4965593;28;21039;-72
2024/02/23 04:42:57;;;;;;;1.23;0.10;;;9.60;99.90;;;;;;4967006;28;20981;-72
2024/02/23 04:45:24;;;;;;;1.17;0.30;;;9.50;99.90;;;;;;4966042;28;20207;-72
2024/02/23 04:47:51;;;;;;;1.13;0.10;;;9.50;99.90;;;;;;4966610;28;20305;-72
2024/02/23 04:50:18;;;;;;;0.70;0.10;;;9.50;99.90;;;;;;4966382;28;20230;-72
2024/02/23 04:52:45;;;;;;;0.40;0.20;;;9.50;99.90;;;;;;4965981;28;20238;-72
2024/02/23 04:55:12;;;;;;;0.20;0.20;;;9.40;99.90;;;;;;4963413;28;20202;-73
2024/02/23 04:57:39;;;;;;;0.60;0.50;;;9.40;99.90;;;;;;4948357;28;20302;-73
2024/02/23 05:00:09;;;;;;;1.70;0.30;;;9.40;99.90;;;;;;4949474;28;20606;-72
2024/02/23 05:02:36;;;;;;;0.20;0.10;;;9.30;99.90;;;;;;4968021;28;20671;-72
2024/02/23 05:05:04;;;;;;;1.60;0.20;;;9.30;99.90;;;;;;4986034;28;20305;-73
2024/02/23 05:07:31;;;;;;;0.10;0.10;;;9.20;99.90;;;;;;4963093;28;20311;-73
2024/02/23 05:09:58;;;;;;;0.13;0.10;;;9.20;99.90;;;;;;4958625;28;20286;-73
2024/02/23 05:12:25;;;;;;;0.30;0.30;;;9.20;99.90;;;;;;4956479;28;20279;-72
2024/02/23 05:14:52;;;;;;;0.10;0.10;;;9.10;99.90;;;;;;4956263;28;20294;-72
2024/02/23 05:17:20;;;;;;;0.10;0.10;;;9.00;99.90;;;;;;4961968;28;20257;-73
2024/02/23 05:19:47;;;;;;;0.23;0.20;;;9.00;99.90;;;;;;4961247;28;20250;-72
2024/02/23 05:22:14;;;;;;;0.33;0.07;;;8.90;99.90;;;;;;4956556;28;20207;-72
2024/02/23 05:24:41;;;;;;;0.07;0.07;;;8.90;99.90;;;;;;4953824;28;20325;-73
2024/02/23 05:27:08;;;;;;;0.10;0.10;;;8.80;99.90;;;;;;4959243;28;20714;-72
2024/02/23 05:29:34;;;;;;;0.10;0.10;;;8.80;99.90;;;;;;4957821;28;20310;-72
2024/02/23 05:32:01;;;;;;;2.10;0.20;;;8.70;99.90;;;;;;4961207;28;20325;-73
2024/02/23 05:34:30;;;;;;;0.10;0.10;;;8.60;99.90;;;;;;4956249;28;20211;-73
2024/02/23 05:36:57;;;;;;;0.23;0.10;;;8.60;99.90;;;;;;4958688;28;20204;-72
2024/02/23 05:39:24;;;;;;;0.10;0.10;;;8.40;99.90;;;;;;4960648;28;20223;-73
2024/02/23 05:41:51;;;;;;;0.07;0.07;;;8.40;99.90;;;;;;4956167;28;20298;-72
2024/02/23 05:44:18;;;;;;;0.13;0.03;;;8.30;99.90;;;;;;4956920;28;20290;-72
2024/02/23 05:46:45;;;;;;;0.00;0.00;;;8.30;99.90;;;;;;4960640;28;20633;-73
2024/02/23 05:49:12;;;;;;;1.20;0.20;;;8.20;99.90;;;;;;4956062;28;20204;-73
2024/02/23 05:51:41;;;;;;;0.20;0.10;;;8.20;99.90;;;;;;4955550;28;20339;-72
2024/02/23 05:54:08;;;;;;;0.67;0.10;;;8.20;99.90;;;;;;4955707;28;20635;-73
2024/02/23 05:56:37;;;;;;;0.07;0.00;;;8.10;99.90;;;;;;4958563;28;20827;-72
2024/02/23 05:59:04;;;;;;;0.10;0.10;;;8.20;99.90;;;;;;4953382;28;20210;-73
2024/02/23 06:01:31;;;;;;;0.07;0.07;;;8.10;99.90;;;;;;4955375;28;20230;-73
2024/02/23 06:03:58;;;;;;;0.00;0.00;;;8.00;99.90;;;;;;4951955;28;20323;-73
2024/02/23 06:06:25;;;;;;;0.00;0.00;;;8.00;99.90;;;;;;4955330;28;20366;-72
2024/02/23 06:08:53;;;;;;;0.23;0.17;;;7.90;99.90;;;;;;4951034;28;20785;-73
2024/02/23 06:11:20;;;;;;;0.30;0.10;;;8.00;99.90;;;;;;4957781;28;20783;-73
2024/02/23 06:13:48;;;;;;;0.00;0.00;;;7.90;99.90;;;;;;4969430;28;20294;-73
2024/02/23 06:16:15;;;;;;;0.43;0.37;;;7.90;99.90;;;;;;4968510;28;20226;-73
2024/02/23 06:18:42;;;;;;;0.40;0.20;;;7.90;99.90;;;;;;4963234;28;20214;-73
2024/02/23 06:21:14;;;;;;;1.23;0.60;;;7.90;99.90;;;;;;4959966;28;20213;-73
2024/02/23 06:23:40;;;;;;;0.57;0.20;;;7.90;99.90;;;;;;4964294;28;20234;-72
2024/02/23 06:26:09;;;;;;;0.10;0.10;;;7.80;99.90;;;;;;4966417;28;20291;-73
2024/02/23 06:28:37;;;;;;;0.40;0.40;;;7.80;99.90;;;;;;4964499;28;20206;-73
2024/02/23 06:31:04;;;;;;;0.20;0.20;;;7.80;99.90;;;;;;4962275;28;20246;-72
2024/02/23 06:33:31;;;;;;;0.10;0.10;;;7.80;99.90;;;;;;4960675;28;20295;-73
2024/02/23 06:35:58;;;;;;;0.43;0.20;;;7.80;99.90;;;;;;4960076;28;20226;-73
2024/02/23 06:38:25;;;;;;;0.10;0.10;;;7.80;99.90;;;;;;4961568;28;20310;-73
2024/02/23 06:40:52;;;;;;;0.63;0.23;;;7.70;99.90;;;;;;4960684;28;20302;-73
2024/02/23 06:43:20;;;;;;;0.40;0.10;;;7.70;99.90;;;;;;4959024;28;20625;-72
2024/02/23 06:45:47;;;;;;;0.20;0.20;;;7.70;99.90;;;;;;4965064;28;20262;-73
2024/02/23 06:48:14;;;;;;;0.93;0.10;;;7.70;99.90;;;;;;4959927;28;20243;-73
2024/02/23 06:50:41;;;;;;;0.30;0.20;;;7.70;99.90;;;;;;4957473;28;20650;-72
2024/02/23 06:53:08;;;;;;;0.53;0.40;;;7.80;99.90;;;;;;4962081;28;20243;-72
2024/02/23 06:55:35;;;;;;;0.10;0.10;;;7.80;99.90;;;;;;4957342;28;20290;-73
2024/02/23 06:58:04;;;;;;;0.20;0.20;;;7.90;99.90;;;;;;4960371;28;20302;-73
2024/02/23 07:00:32;;;;;;;2.13;0.20;;;7.90;99.90;;;;;;4955878;28;20573;-73
2024/02/23 07:03:01;;;;;;;0.10;0.10;;;7.90;99.90;;;;;;4957191;28;20714;-73
2024/02/23 07:05:28;;;;;;;0.33;0.30;;;7.90;99.90;;;;;;4957975;28;20207;-73
2024/02/23 07:07:55;;;;;;;0.50;0.30;;;8.00;99.90;;;;;;4962574;28;20295;-73
2024/02/23 07:10:24;;;;;;;0.30;0.30;;;8.00;99.90;;;;;;4963917;28;20734;-73
2024/02/23 07:12:53;;;;;;;0.30;0.30;;;7.90;99.90;;;;;;4961583;28;20208;-73
2024/02/23 07:15:20;;;;;;;2.60;0.20;;;7.90;99.90;;;;;;4956089;28;20619;-73
2024/02/23 07:17:51;;;;;;;0.57;0.20;;;7.90;99.90;;;;;;4960548;28;20281;-72
2024/02/23 07:20:18;;;;;;;0.27;0.10;;;7.90;99.90;;;;;;4959317;28;20334;-73
2024/02/23 07:22:45;;;;;;;0.10;0.10;;;7.90;99.90;;;;;;4958559;28;20367;-73
2024/02/23 07:25:12;;;;;;;0.10;0.10;;;7.90;99.90;;;;;;4957222;28;20199;-73
2024/02/23 07:27:39;;;;;;;1.30;0.30;;;7.80;99.90;;;;;;4963822;28;20221;-73
2024/02/23 07:30:08;;;;;;;0.20;0.20;;;7.80;99.90;;;;;;4964020;28;20215;-72
2024/02/23 07:32:36;;;;;;;0.33;0.13;;;7.80;99.90;;;;;;4955301;28;20229;-73
2024/02/23 07:35:05;;;;;;;1.40;0.20;;;7.80;99.90;;;;;;4960341;28;20230;-73
2024/02/23 07:37:32;;;;;;;0.20;0.20;;;7.80;99.90;;;;;;4953470;28;20239;-73
2024/02/23 07:39:58;;;;;;;0.10;0.10;;;7.80;99.90;;;;;;4956769;28;20256;-73
2024/02/23 07:42:25;;;;;;;0.63;0.10;;;7.80;99.90;;;;;;4961690;28;20279;-73
2024/02/23 07:44:52;;;;;;;0.20;0.20;;;7.80;99.90;;;;;;4959240;28;20230;-73
2024/02/23 07:47:19;;;;;;;0.97;0.70;;;7.80;99.90;;;;;;4953720;28;20203;-72
2024/02/23 07:49:46;;;;;;;1.07;0.30;;;7.90;99.90;;;;;;4958779;28;20286;-73
2024/02/23 07:52:14;;;;;;;0.27;0.20;;;7.80;99.90;;;;;;4956130;28;20566;-73
2024/02/23 07:54:41;;;;;;;0.30;0.30;;;7.90;99.90;;;;;;4958912;28;20285;-73
2024/02/23 07:57:08;;;;;;;0.10;0.10;;;7.90;99.90;;;;;;4960947;28;20200;-72
2024/02/23 07:59:35;;;;;;;0.37;0.30;;;8.00;99.90;;;;;;4959897;28;20592;-73
2024/02/23 08:02:02;;;;;;;0.70;0.70;;;8.00;99.90;;;;;;4959218;28;20235;-73
2024/02/23 08:04:29;;;;;;;0.20;0.20;;;8.20;99.90;;;;;;4963937;28;20229;-73
2024/02/23 08:06:56;;;;;;;0.20;0.20;;;8.30;99.90;;;;;;4959703;28;20300;-73
2024/02/23 08:09:24;;;;;;;0.33;0.33;;;8.30;99.90;;;;;;4958547;28;20613;-73
2024/02/23 08:11:51;;;;;;;1.10;1.10;;;8.40;99.90;;;;;;4959831;28;20231;-73
2024/02/23 08:14:18;;;;;;;0.20;0.20;;;8.60;99.90;;;;;;4959427;28;20217;-73
2024/02/23 08:16:45;;;;;;;1.03;0.40;;;8.50;99.90;;;;;;4957418;28;20655;-73
2024/02/23 08:19:12;;;;;;;0.20;0.20;;;8.60;99.90;;;;;;4955797;28;20286;-73
2024/02/23 08:21:40;;;;;;;0.50;0.50;;;8.60;99.90;;;;;;4958211;28;20209;-73
2024/02/23 08:24:08;;;;;;;0.30;0.30;;;8.60;99.90;;;;;;4960136;28;20234;-73
2024/02/23 08:26:38;;;;;;;0.10;0.10;;;8.70;99.90;;;;;;4961285;28;20215;-73
2024/02/23 08:29:04;;;;;;;0.30;0.17;;;8.60;99.90;;;;;;4956937;28;20226;-73
2024/02/23 08:31:31;;;;;;;1.17;0.43;;;8.60;99.90;;;;;;4958561;28;20695;-73
2024/02/23 08:33:58;;;;;;;0.10;0.10;;;8.70;99.90;;;;;;4960227;28;20297;-73
2024/02/23 08:36:25;;;;;;;0.50;0.33;;;8.60;99.90;;;;;;4958531;28;20246;-73
2024/02/23 08:38:52;;;;;;;0.97;0.97;;;8.60;99.90;;;;;;4961848;28;20606;-73
2024/02/23 08:41:19;;;;;;;1.67;1.57;;;8.60;99.90;;;;;;4956097;28;20297;-73
2024/02/23 08:43:47;;;;;;;1.47;0.43;;;8.70;99.90;;;;;;4956398;28;20290;-73
2024/02/23 08:46:14;;;;;;;1.27;1.20;;;8.60;99.90;;;;;;4956822;28;20290;-73
2024/02/23 08:48:41;;;;;;;2.00;1.90;;;8.60;99.90;;;;;;4957655;28;20286;-72
2024/02/23 08:51:08;;;;;;;1.23;0.43;;;8.70;99.90;;;;;;4958212;28;20233;-73
2024/02/23 08:53:35;;;;;;;0.67;0.67;;;8.80;99.90;;;;;;4956923;28;20215;-72
2024/02/23 08:56:02;;;;;;;0.60;0.60;;;8.70;99.90;;;;;;4959751;28;20727;-72
2024/02/23 08:58:29;;;;;;;1.13;0.40;;;8.90;99.90;;;;;;4956243;28;20250;-73
2024/02/23 09:00:57;;;;;;;0.83;0.20;;;9.00;99.90;;;;;;4958778;28;20857;-73
2024/02/23 09:03:24;;;;;;;0.50;0.50;;;8.90;99.90;;;;;;4962501;28;20214;-72
2024/02/23 09:05:51;;;;;;;0.83;0.80;;;9.00;99.90;;;;;;4953347;28;20275;-73
2024/02/23 09:08:18;;;;;;;0.87;0.57;;;9.10;99.90;;;;;;4963101;28;20207;-72
2024/02/23 09:10:44;;;;;;;0.30;0.30;;;9.20;99.90;;;;;;4955460;28;20246;-72
2024/02/23 09:13:12;;;;;;;0.30;0.30;;;9.20;99.90;;;;;;4958072;28;20313;-72
2024/02/23 09:15:39;;;;;;;1.70;0.37;;;9.30;99.90;;;;;;4960261;28;20194;-73
2024/02/23 09:18:07;;;;;;;0.30;0.30;;;9.20;99.90;;;;;;4957715;28;20235;-72
2024/02/23 09:20:34;;;;;;;0.30;0.30;;;9.20;99.90;;;;;;4959295;28;20234;-72
2024/02/23 09:23:01;;;;;;;0.20;0.20;;;9.30;99.90;;;;;;4958730;28;20239;-74
2024/02/23 09:25:28;;;;;;;0.43;0.20;;;9.20;99.90;;;;;;4955810;28;20273;-73
2024/02/23 09:27:58;;;;;;;8.50;1.20;;;9.20;99.90;;;;;;4961535;28;20207;-73
2024/02/23 09:30:25;;;;;;;0.30;0.20;;;9.30;99.90;;;;;;4957036;28;20294;-73
2024/02/23 09:32:52;;;;;;;0.30;0.30;;;9.30;99.90;;;;;;4958428;28;20671;-73
2024/02/23 09:35:20;;;;;;;1.00;0.90;;;9.20;99.90;;;;;;4955428;28;20208;-74
2024/02/23 09:37:47;;;;;;;1.20;0.30;;;9.30;99.90;;;;;;4955699;28;20232;-72
2024/02/23 09:40:16;;;;;;;0.63;0.20;;;9.30;99.90;;;;;;4959188;28;20294;-73
2024/02/23 09:42:43;;;;;;;0.77;0.30;;;9.40;99.90;;;;;;4962879;28;20654;-72
2024/02/23 09:45:13;;;;;;;0.40;0.40;;;9.50;99.90;;;;;;4961726;28;20403;-72
2024/02/23 09:47:41;;;;;;;0.33;0.20;;;9.50;99.90;;;;;;4960917;28;20214;-73
2024/02/23 09:50:09;;;;;;;1.20;0.50;;;9.60;99.90;;;;;;4959309;28;20206;-72
2024/02/23 09:52:38;;;;;;;0.20;0.20;;;9.60;99.90;;;;;;4958545;28;21064;-72
2024/02/23 09:55:05;;;;;;;0.50;0.30;;;9.50;99.90;;;;;;4959307;28;20299;-73
2024/02/23 09:57:32;;;;;;;0.40;0.30;;;9.60;99.90;;;;;;4968108;28;20791;-73
2024/02/23 09:59:59;;;;;;;0.50;0.27;;;9.60;99.90;;;;;;4961974;28;20234;-73
2024/02/23 10:02:26;;;;;;;0.33;0.33;;;9.50;99.90;;;;;;4961356;28;20721;-73
2024/02/23 10:04:57;;;;;;;0.30;0.30;;;9.40;99.90;;;;;;4961024;28;20238;-73
2024/02/23 10:07:26;;;;;;;0.70;0.37;;;9.40;99.90;;;;;;4961241;28;20231;-72
2024/02/23 10:09:55;;;;;;;1.13;0.27;;;9.30;99.90;;;;;;4958921;28;20235;-73
2024/02/23 10:12:22;;;;;;;0.20;0.20;;;9.40;99.90;;;;;;4960670;28;20695;-73
2024/02/23 10:14:49;;;;;;;0.53;0.40;;;9.50;99.90;;;;;;4961462;28;20282;-73
2024/02/23 10:17:15;;;;;;;1.70;0.30;;;9.40;99.90;;;;;;4963234;28;20298;-73
2024/02/23 10:19:42;;;;;;;0.47;0.30;;;9.40;99.90;;;;;;4959620;28;20235;-73
2024/02/23 10:22:10;;;;;;;0.47;0.30;;;9.40;99.90;;;;;;4961841;28;20285;-73
2024/02/23 10:24:38;;;;;;;1.67;1.53;;;9.60;99.90;;;;;;4958055;28;20230;-72
2024/02/23 10:27:06;;;;;;;0.40;0.40;;;9.70;99.90;;;;;;4964045;28;20219;-72
2024/02/23 10:29:33;;;;;;;0.90;0.70;;;9.60;99.90;;;;;;4953224;28;20353;-72
2024/02/23 10:32:03;;;;;;;1.80;1.70;;;9.60;99.90;;;;;;4961435;28;20301;-73
2024/02/23 10:34:32;;;;;;;2.87;2.60;;;9.80;99.90;;;;;;4958598;28;20206;-73
2024/02/23 10:36:58;;;;;;;0.73;0.73;;;10.00;99.90;;;;;;4958437;28;20670;-72
2024/02/23 10:39:27;;;;;;;1.77;1.67;;;10.20;99.90;;;;;;4960342;28;20230;-72
2024/02/23 10:41:59;;;;;;;1.17;0.23;;;10.20;99.90;;;;;;4960681;28;20733;-73
2024/02/23 10:44:28;;;;;;;0.50;0.17;;;9.80;99.90;;;;;;4961296;28;20202;-73
2024/02/23 10:46:56;;;;;;;0.47;0.27;;;9.60;99.90;;;;;;4958897;28;20294;-73
2024/02/23 10:49:26;;;;;;;0.40;0.40;;;9.70;99.90;;;;;;4961923;28;20289;-72
2024/02/23 10:51:54;;;;;;;0.83;0.83;;;9.70;99.90;;;;;;4963294;28;20269;-72
2024/02/23 10:54:22;;;;;;;0.70;0.30;;;9.80;99.90;;;;;;4961769;28;20302;-73
2024/02/23 10:56:51;;;;;;;1.10;1.00;;;9.90;99.90;;;;;;4959872;28;20290;-73
2024/02/23 10:59:19;;;;;;;1.23;1.13;;;10.00;99.90;;;;;;4958495;28;20664;-73
2024/02/23 11:01:49;;;;;;;3.17;2.07;;;9.90;99.90;;;;;;4962877;28;20207;-72
2024/02/23 11:04:18;;;;;;;2.17;1.30;;;9.80;99.90;;;;;;4958947;28;20191;-73
2024/02/23 11:06:51;;;;;;;4.63;1.80;;;9.80;99.90;;;;;;4959075;28;20294;-73
2024/02/23 11:09:21;;;;;;;1.60;0.50;;;9.80;99.90;;;;;;4961523;28;20207;-73
2024/02/23 11:11:55;;;;;;;3.23;1.93;;;9.90;99.90;;;;;;4958539;28;20195;-72
2024/02/23 11:14:33;;;;;;;3.63;2.37;;;9.80;99.90;;;;;;4958971;28;20201;-72
2024/02/23 11:17:01;;;;;;;3.17;2.60;;;10.00;99.90;;;;;;4955774;28;20293;-73
2024/02/23 11:19:35;;;;;;;2.07;1.77;;;10.10;99.90;;;;;;4963190;28;20285;-73
2024/02/23 11:22:02;;;;;;;1.93;1.67;;;10.10;99.90;;;;;;4958395;28;20298;-73
2024/02/23 11:24:30;;;;;;;1.80;0.30;;;10.10;99.90;;;;;;4957968;28;20722;-73
2024/02/23 11:26:58;;;;;;;1.53;0.70;;;10.10;99.90;;;;;;4964805;28;20220;-73
2024/02/23 11:29:28;;;;;;;0.73;0.40;;;10.20;99.90;;;;;;4960972;28;20294;-73
2024/02/23 11:32:01;;;;;;;0.93;0.20;;;10.10;99.90;;;;;;4960321;28;20746;-73
2024/02/23 11:34:29;;;;;;;1.13;0.67;;;10.00;99.90;;;;;;4958406;28;20206;-72
2024/02/23 11:36:58;;;;;;;1.33;1.23;;;10.20;99.90;;;;;;4957280;28;20575;-73
2024/02/23 11:39:26;;;;;;;1.60;1.50;;;10.20;99.90;;;;;;4957422;28;20215;-73
2024/02/23 11:41:53;;;;;;;0.50;0.43;;;10.20;99.90;;;;;;4958376;28;20293;-73
2024/02/23 11:44:20;;;;;;;0.80;0.60;;;10.20;99.90;;;;;;4955520;28;20258;-73
2024/02/23 11:46:47;;;;;;;2.90;0.50;;;10.20;99.90;;;;;;4960102;28;20739;-73
2024/02/23 11:49:15;;;;;;;1.50;0.63;;;10.00;99.90;;;;;;4961914;28;20699;-73
2024/02/23 11:51:44;;;;;;;1.33;0.40;;;9.90;99.90;;;;;;4964896;28;20912;-72
2024/02/23 11:54:11;;;;;;;0.17;0.17;;;9.90;99.90;;;;;;4960461;28;20223;-73
2024/02/23 11:56:38;;;;;;;13.03;10.07;;;9.90;99.90;;;;;;4955866;28;20218;-71
2024/02/23 11:59:06;;;;;;;2.93;2.73;;;10.00;99.90;;;;;;4958735;28;20234;-71
2024/02/23 12:01:33;;;;;;;1.90;1.80;;;10.20;99.90;;;;;;4960923;28;20649;-71
2024/02/23 12:04:00;;;;;;;1.20;1.00;;;10.20;99.90;;;;;;4956135;28;20321;-72
2024/02/23 12:06:30;;;;;;;1.53;0.70;;;10.20;99.90;;;;;;4957936;28;20218;-72
2024/02/23 12:08:59;;;;;;;1.23;0.63;;;10.20;99.90;;;;;;4959413;28;20549;-72
2024/02/23 12:11:26;;;;;;;0.50;0.50;;;10.20;99.90;;;;;;4957694;28;20725;-72
2024/02/23 12:13:53;;;;;;;0.90;0.60;;;10.20;99.90;;;;;;4956019;28;20709;-72
2024/02/23 12:16:22;;;;;;;0.80;0.47;;;10.20;99.90;;;;;;4959924;28;20206;-72
2024/02/23 12:18:55;;;;;;;1.53;1.10;;;10.10;99.90;;;;;;4962326;28;20203;-71
2024/02/23 12:21:22;;;;;;;1.93;0.53;;;10.10;99.90;;;;;;4960647;28;20202;-72
2024/02/23 12:23:51;;;;;;;0.70;0.57;;;9.90;99.90;;;;;;4962546;28;20326;-72
2024/02/23 12:26:20;;;;;;;0.93;0.60;;;10.00;99.90;;;;;;4960134;28;20222;-71
2024/02/23 12:28:47;;;;;;;0.30;0.30;;;10.00;99.90;;;;;;4959346;28;20199;-72
2024/02/23 12:31:14;;;;;;;0.20;0.20;;;10.00;99.90;;;;;;4955929;28;20318;-72
2024/02/23 12:33:47;;;;;;;0.83;0.23;;;10.00;99.90;;;;;;4956192;28;20270;-72
2024/02/23 12:36:14;;;;;;;0.37;0.30;;;9.90;99.90;;;;;;4959523;28;20215;-72
2024/02/23 12:38:41;;;;;;;1.47;0.40;;;9.90;99.90;;;;;;4955331;28;20239;-72
2024/02/23 12:41:08;;;;;;;0.40;0.40;;;9.90;99.90;;;;;;4957939;28;20638;-72
2024/02/23 12:43:36;;;;;;;0.50;0.30;;;9.90;99.90;;;;;;4961645;28;20230;-72
2024/02/23 12:46:04;;;;;;;0.73;0.60;;;10.00;99.90;;;;;;4961842;28;20215;-72
2024/02/23 12:48:31;;;;;;;1.37;0.77;;;10.10;99.90;;;;;;4958859;28;20246;-72
2024/02/23 12:50:57;;;;;;;0.30;0.20;;;10.10;99.90;;;;;;4964222;28;20231;-72
2024/02/23 12:53:36;;;;;;;1.63;1.40;;;10.20;99.90;;;;;;4962246;28;20240;-72